sensor_id;sensor_type;location;lat;lon;timestamp;P1;durP1;ratioP1;P2;durP2;ratioP2
16673;SDS011;8450;52.654;10.326;2023-07-16T06:51:15;3.20;;;2.70;;
16673;SDS011;8450;52.654;10.326;2023-07-16T06:53:41;3.20;;;2.87;;
16673;SDS011;8450;52.654;10.326;2023-07-16T06:56:07;3.43;;;3.13;;
16673;SDS011;8450;52.654;10.326;2023-07-16T06:58:32;2.90;;;2.33;;
16673;SDS011;8450;52.654;10.326;2023-07-16T07:00:58;2.60;;;2.40;;
16673;SDS011;8450;52.654;10.326;2023-07-16T07:03:24;3.17;;;2.90;;
16673;SDS011;8450;52.654;10.326;2023-07-16T07:05:50;4.17;;;3.20;;
16673;SDS011;8450;52.654;10.326;2023-07-16T07:08:15;2.77;;;2.50;;
16673;SDS011;8450;52.654;10.326;2023-07-16T07:10:41;4.17;;;2.70;;
16673;SDS011;8450;52.654;10.326;2023-07-16T07:13:06;2.53;;;2.17;;
16673;SDS011;8450;52.654;10.326;2023-07-16T07:15:32;2.70;;;2.43;;
16673;SDS011;8450;52.654;10.326;2023-07-16T07:17:58;5.37;;;2.90;;
16673;SDS011;8450;52.654;10.326;2023-07-16T07:20:23;3.47;;;2.50;;
16673;SDS011;8450;52.654;10.326;2023-07-16T07:22:49;4.67;;;2.57;;
16673;SDS011;8450;52.654;10.326;2023-07-16T07:25:14;6.43;;;2.83;;
16673;SDS011;8450;52.654;10.326;2023-07-16T07:27:40;3.83;;;2.73;;
16673;SDS011;8450;52.654;10.326;2023-07-16T07:30:06;3.33;;;2.50;;
16673;SDS011;8450;52.654;10.326;2023-07-16T07:32:32;2.70;;;2.30;;
16673;SDS011;8450;52.654;10.326;2023-07-16T07:35:01;3.77;;;2.20;;
16673;SDS011;8450;52.654;10.326;2023-07-16T07:37:27;3.97;;;2.33;;
16673;SDS011;8450;52.654;10.326;2023-07-16T07:39:52;2.77;;;2.43;;
16673;SDS011;8450;52.654;10.326;2023-07-16T07:42:18;4.70;;;2.60;;
16673;SDS011;8450;52.654;10.326;2023-07-16T07:44:44;3.20;;;2.80;;
16673;SDS011;8450;52.654;10.326;2023-07-16T07:47:10;4.87;;;2.67;;
16673;SDS011;8450;52.654;10.326;2023-07-16T07:49:37;4.57;;;2.20;;
16673;SDS011;8450;52.654;10.326;2023-07-16T07:52:03;4.83;;;2.70;;
16673;SDS011;8450;52.654;10.326;2023-07-16T07:54:31;4.10;;;2.60;;
16673;SDS011;8450;52.654;10.326;2023-07-16T07:56:57;3.80;;;2.40;;
16673;SDS011;8450;52.654;10.326;2023-07-16T07:59:26;5.40;;;2.63;;
16673;SDS011;8450;52.654;10.326;2023-07-16T08:01:52;6.90;;;2.67;;
16673;SDS011;8450;52.654;10.326;2023-07-16T08:04:17;5.30;;;2.57;;
16673;SDS011;8450;52.654;10.326;2023-07-16T08:06:43;4.90;;;2.47;;
16673;SDS011;8450;52.654;10.326;2023-07-16T08:09:09;3.17;;;2.73;;
16673;SDS011;8450;52.654;10.326;2023-07-16T08:11:34;3.47;;;2.67;;
16673;SDS011;8450;52.654;10.326;2023-07-16T08:14:00;5.70;;;2.97;;
16673;SDS011;8450;52.654;10.326;2023-07-16T08:16:25;4.27;;;3.40;;
16673;SDS011;8450;52.654;10.326;2023-07-16T08:18:51;4.13;;;2.80;;
16673;SDS011;8450;52.654;10.326;2023-07-16T08:21:16;5.70;;;3.10;;
16673;SDS011;8450;52.654;10.326;2023-07-16T08:23:46;6.07;;;3.10;;
16673;SDS011;8450;52.654;10.326;2023-07-16T08:26:12;4.70;;;2.70;;
16673;SDS011;8450;52.654;10.326;2023-07-16T08:28:38;3.87;;;3.00;;
16673;SDS011;8450;52.654;10.326;2023-07-16T08:31:03;3.73;;;2.43;;
16673;SDS011;8450;52.654;10.326;2023-07-16T08:33:29;4.10;;;2.93;;
16673;SDS011;8450;52.654;10.326;2023-07-16T08:35:54;4.10;;;3.10;;
16673;SDS011;8450;52.654;10.326;2023-07-16T08:38:20;4.63;;;2.90;;
16673;SDS011;8450;52.654;10.326;2023-07-16T08:40:46;4.00;;;2.80;;
16673;SDS011;8450;52.654;10.326;2023-07-16T08:43:13;4.30;;;2.90;;
16673;SDS011;8450;52.654;10.326;2023-07-16T08:45:41;4.43;;;2.90;;
16673;SDS011;8450;52.654;10.326;2023-07-16T08:48:10;6.13;;;3.13;;
16673;SDS011;8450;52.654;10.326;2023-07-16T08:50:36;4.17;;;2.90;;
16673;SDS011;8450;52.654;10.326;2023-07-16T08:53:05;5.13;;;3.07;;
16673;SDS011;8450;52.654;10.326;2023-07-16T08:55:32;4.30;;;3.00;;
16673;SDS011;8450;52.654;10.326;2023-07-16T08:57:58;5.90;;;3.10;;
16673;SDS011;8450;52.654;10.326;2023-07-16T09:00:27;6.10;;;2.90;;
16673;SDS011;8450;52.654;10.326;2023-07-16T09:02:54;4.70;;;3.20;;
16673;SDS011;8450;52.654;10.326;2023-07-16T09:05:20;4.67;;;3.10;;
16673;SDS011;8450;52.654;10.326;2023-07-16T09:07:47;4.73;;;3.43;;
16673;SDS011;8450;52.654;10.326;2023-07-16T09:10:13;3.90;;;2.80;;
16673;SDS011;8450;52.654;10.326;2023-07-16T09:12:45;5.23;;;3.13;;
16673;SDS011;8450;52.654;10.326;2023-07-16T09:15:13;5.57;;;3.20;;
16673;SDS011;8450;52.654;10.326;2023-07-16T09:17:42;4.30;;;3.47;;
16673;SDS011;8450;52.654;10.326;2023-07-16T09:20:07;5.63;;;2.90;;
16673;SDS011;8450;52.654;10.326;2023-07-16T09:22:34;5.10;;;3.30;;
16673;SDS011;8450;52.654;10.326;2023-07-16T09:25:00;4.30;;;3.20;;
16673;SDS011;8450;52.654;10.326;2023-07-16T09:27:30;3.23;;;2.83;;
16673;SDS011;8450;52.654;10.326;2023-07-16T09:29:56;4.17;;;3.10;;
16673;SDS011;8450;52.654;10.326;2023-07-16T09:32:32;4.67;;;3.03;;
16673;SDS011;8450;52.654;10.326;2023-07-16T09:34:58;6.03;;;3.20;;
16673;SDS011;8450;52.654;10.326;2023-07-16T09:37:24;6.43;;;3.20;;
16673;SDS011;8450;52.654;10.326;2023-07-16T09:39:51;6.10;;;3.50;;
16673;SDS011;8450;52.654;10.326;2023-07-16T09:42:16;5.57;;;3.30;;
16673;SDS011;8450;52.654;10.326;2023-07-16T09:44:44;4.60;;;3.30;;
16673;SDS011;8450;52.654;10.326;2023-07-16T09:47:10;3.83;;;3.13;;
16673;SDS011;8450;52.654;10.326;2023-07-16T09:49:35;5.03;;;3.20;;
16673;SDS011;8450;52.654;10.326;2023-07-16T09:52:01;5.50;;;3.20;;
16673;SDS011;8450;52.654;10.326;2023-07-16T09:54:27;6.17;;;3.40;;
16673;SDS011;8450;52.654;10.326;2023-07-16T09:56:57;5.67;;;3.50;;
16673;SDS011;8450;52.654;10.326;2023-07-16T09:59:25;3.80;;;3.40;;
16673;SDS011;8450;52.654;10.326;2023-07-16T10:01:56;8.20;;;3.77;;
16673;SDS011;8450;52.654;10.326;2023-07-16T10:04:22;4.57;;;3.60;;
16673;SDS011;8450;52.654;10.326;2023-07-16T10:06:51;4.07;;;3.10;;
16673;SDS011;8450;52.654;10.326;2023-07-16T10:09:32;6.23;;;3.33;;
16673;SDS011;8450;52.654;10.326;2023-07-16T10:12:08;4.90;;;3.43;;
16673;SDS011;8450;52.654;10.326;2023-07-16T10:14:42;3.97;;;2.80;;
16673;SDS011;8450;52.654;10.326;2023-07-16T10:17:30;4.53;;;3.00;;
16673;SDS011;8450;52.654;10.326;2023-07-16T10:20:07;3.50;;;3.20;;
16673;SDS011;8450;52.654;10.326;2023-07-16T10:25:05;5.10;;;3.53;;
16673;SDS011;8450;52.654;10.326;2023-07-16T10:27:35;4.23;;;3.00;;
16673;SDS011;8450;52.654;10.326;2023-07-16T10:30:01;3.40;;;3.00;;
16673;SDS011;8450;52.654;10.326;2023-07-16T10:32:30;5.10;;;2.77;;
16673;SDS011;8450;52.654;10.326;2023-07-16T10:34:56;6.90;;;3.30;;
16673;SDS011;8450;52.654;10.326;2023-07-16T10:37:22;5.37;;;3.57;;
16673;SDS011;8450;52.654;10.326;2023-07-16T10:39:49;3.53;;;3.23;;
16673;SDS011;8450;52.654;10.326;2023-07-16T10:42:20;3.87;;;3.53;;
16673;SDS011;8450;52.654;10.326;2023-07-16T10:44:49;4.90;;;2.80;;
16673;SDS011;8450;52.654;10.326;2023-07-16T10:47:24;4.07;;;2.97;;
16673;SDS011;8450;52.654;10.326;2023-07-16T10:50:12;4.87;;;2.97;;
16673;SDS011;8450;52.654;10.326;2023-07-16T10:52:38;3.80;;;3.27;;
16673;SDS011;8450;52.654;10.326;2023-07-16T10:55:03;4.37;;;3.53;;
16673;SDS011;8450;52.654;10.326;2023-07-16T10:57:29;5.33;;;3.33;;
16673;SDS011;8450;52.654;10.326;2023-07-16T10:59:57;5.30;;;3.30;;
16673;SDS011;8450;52.654;10.326;2023-07-16T11:02:24;4.47;;;3.70;;
16673;SDS011;8450;52.654;10.326;2023-07-16T11:04:50;4.45;;;3.13;;
16673;SDS011;8450;52.654;10.326;2023-07-16T11:07:20;3.33;;;2.77;;
16673;SDS011;8450;52.654;10.326;2023-07-16T11:09:47;5.80;;;3.70;;
16673;SDS011;8450;52.654;10.326;2023-07-16T11:12:15;6.07;;;3.30;;
16673;SDS011;8450;52.654;10.326;2023-07-16T11:14:42;5.53;;;3.20;;
16673;SDS011;8450;52.654;10.326;2023-07-16T11:17:10;5.10;;;3.47;;
16673;SDS011;8450;52.654;10.326;2023-07-16T11:19:36;3.37;;;3.07;;
16673;SDS011;8450;52.654;10.326;2023-07-16T11:22:03;4.40;;;3.10;;
16673;SDS011;8450;52.654;10.326;2023-07-16T11:24:39;4.10;;;2.80;;
16673;SDS011;8450;52.654;10.326;2023-07-16T11:27:05;5.93;;;2.87;;
16673;SDS011;8450;52.654;10.326;2023-07-16T11:29:37;4.77;;;3.00;;
16673;SDS011;8450;52.654;10.326;2023-07-16T11:32:03;3.50;;;3.20;;
16673;SDS011;8450;52.654;10.326;2023-07-16T11:34:30;4.57;;;3.10;;
16673;SDS011;8450;52.654;10.326;2023-07-16T11:37:06;5.00;;;3.30;;
16673;SDS011;8450;52.654;10.326;2023-07-16T11:39:37;3.60;;;3.10;;
16673;SDS011;8450;52.654;10.326;2023-07-16T11:42:03;4.07;;;2.90;;
16673;SDS011;8450;52.654;10.326;2023-07-16T11:44:35;4.13;;;2.53;;
16673;SDS011;8450;52.654;10.326;2023-07-16T11:47:02;3.93;;;3.10;;
16673;SDS011;8450;52.654;10.326;2023-07-16T11:49:28;4.30;;;3.27;;
16673;SDS011;8450;52.654;10.326;2023-07-16T11:51:54;3.50;;;3.20;;
16673;SDS011;8450;52.654;10.326;2023-07-16T11:54:20;4.30;;;3.10;;
16673;SDS011;8450;52.654;10.326;2023-07-16T11:56:45;4.20;;;3.23;;
16673;SDS011;8450;52.654;10.326;2023-07-16T11:59:12;3.93;;;3.50;;
16673;SDS011;8450;52.654;10.326;2023-07-16T12:01:38;3.27;;;2.80;;
16673;SDS011;8450;52.654;10.326;2023-07-16T12:04:03;5.70;;;3.50;;
16673;SDS011;8450;52.654;10.326;2023-07-16T12:06:29;3.50;;;3.20;;
16673;SDS011;8450;52.654;10.326;2023-07-16T12:08:54;4.83;;;3.50;;
16673;SDS011;8450;52.654;10.326;2023-07-16T12:11:20;3.87;;;3.57;;
16673;SDS011;8450;52.654;10.326;2023-07-16T12:13:47;5.33;;;3.50;;
16673;SDS011;8450;52.654;10.326;2023-07-16T12:16:13;5.27;;;3.40;;
16673;SDS011;8450;52.654;10.326;2023-07-16T12:18:38;5.27;;;3.27;;
16673;SDS011;8450;52.654;10.326;2023-07-16T12:21:04;4.60;;;3.67;;
16673;SDS011;8450;52.654;10.326;2023-07-16T12:23:31;3.80;;;3.43;;
16673;SDS011;8450;52.654;10.326;2023-07-16T12:25:56;4.83;;;3.60;;
16673;SDS011;8450;52.654;10.326;2023-07-16T12:28:22;5.50;;;3.90;;
16673;SDS011;8450;52.654;10.326;2023-07-16T12:30:47;4.20;;;3.43;;
16673;SDS011;8450;52.654;10.326;2023-07-16T12:33:13;5.37;;;3.40;;
16673;SDS011;8450;52.654;10.326;2023-07-16T12:35:39;4.75;;;3.78;;
16673;SDS011;8450;52.654;10.326;2023-07-16T12:38:04;3.85;;;3.20;;
16673;SDS011;8450;52.654;10.326;2023-07-16T12:40:30;6.30;;;3.53;;
16673;SDS011;8450;52.654;10.326;2023-07-16T12:42:56;4.70;;;4.07;;
16673;SDS011;8450;52.654;10.326;2023-07-16T12:45:21;5.30;;;3.60;;
16673;SDS011;8450;52.654;10.326;2023-07-16T12:47:47;4.38;;;3.80;;
16673;SDS011;8450;52.654;10.326;2023-07-16T12:50:12;4.03;;;3.63;;
16673;SDS011;8450;52.654;10.326;2023-07-16T12:52:38;3.45;;;3.15;;
16673;SDS011;8450;52.654;10.326;2023-07-16T12:55:04;3.38;;;2.90;;
16673;SDS011;8450;52.654;10.326;2023-07-16T12:57:29;5.80;;;3.88;;
16673;SDS011;8450;52.654;10.326;2023-07-16T12:59:55;5.22;;;3.38;;
16673;SDS011;8450;52.654;10.326;2023-07-16T13:02:21;4.65;;;3.30;;
16673;SDS011;8450;52.654;10.326;2023-07-16T13:04:46;5.18;;;3.95;;
16673;SDS011;8450;52.654;10.326;2023-07-16T13:07:12;4.60;;;3.20;;
16673;SDS011;8450;52.654;10.326;2023-07-16T13:09:38;3.95;;;3.47;;
16673;SDS011;8450;52.654;10.326;2023-07-16T13:12:03;4.18;;;3.78;;
16673;SDS011;8450;52.654;10.326;2023-07-16T13:14:29;4.13;;;3.50;;
16673;SDS011;8450;52.654;10.326;2023-07-16T13:16:55;6.93;;;4.10;;
16673;SDS011;8450;52.654;10.326;2023-07-16T13:19:20;3.47;;;3.17;;
16673;SDS011;8450;52.654;10.326;2023-07-16T13:21:46;4.73;;;4.03;;
16673;SDS011;8450;52.654;10.326;2023-07-16T13:24:11;5.17;;;3.70;;
16673;SDS011;8450;52.654;10.326;2023-07-16T13:26:37;4.25;;;3.60;;
16673;SDS011;8450;52.654;10.326;2023-07-16T13:29:03;4.50;;;3.70;;
16673;SDS011;8450;52.654;10.326;2023-07-16T13:31:30;4.23;;;3.63;;
16673;SDS011;8450;52.654;10.326;2023-07-16T13:33:55;4.30;;;3.33;;
16673;SDS011;8450;52.654;10.326;2023-07-16T13:36:21;4.17;;;3.30;;
16673;SDS011;8450;52.654;10.326;2023-07-16T13:38:47;5.43;;;3.60;;
16673;SDS011;8450;52.654;10.326;2023-07-16T13:41:12;4.37;;;3.80;;
16673;SDS011;8450;52.654;10.326;2023-07-16T13:43:38;3.97;;;3.53;;
16673;SDS011;8450;52.654;10.326;2023-07-16T13:46:03;4.50;;;3.53;;
16673;SDS011;8450;52.654;10.326;2023-07-16T13:48:29;6.03;;;4.20;;
16673;SDS011;8450;52.654;10.326;2023-07-16T13:50:55;3.80;;;3.50;;
16673;SDS011;8450;52.654;10.326;2023-07-16T13:53:20;5.03;;;3.57;;
16673;SDS011;8450;52.654;10.326;2023-07-16T13:55:46;4.10;;;3.70;;
16673;SDS011;8450;52.654;10.326;2023-07-16T13:58:11;3.73;;;3.37;;
16673;SDS011;8450;52.654;10.326;2023-07-16T14:00:39;3.90;;;3.47;;
16673;SDS011;8450;52.654;10.326;2023-07-16T14:03:05;3.90;;;3.27;;
16673;SDS011;8450;52.654;10.326;2023-07-16T14:05:31;4.47;;;3.53;;
16673;SDS011;8450;52.654;10.326;2023-07-16T14:07:59;3.63;;;3.25;;
16673;SDS011;8450;52.654;10.326;2023-07-16T14:10:25;3.60;;;3.30;;
16673;SDS011;8450;52.654;10.326;2023-07-16T14:12:51;3.47;;;3.17;;
16673;SDS011;8450;52.654;10.326;2023-07-16T14:15:16;3.95;;;3.55;;
16673;SDS011;8450;52.654;10.326;2023-07-16T14:17:42;3.38;;;3.05;;
16673;SDS011;8450;52.654;10.326;2023-07-16T14:20:08;3.40;;;3.10;;
16673;SDS011;8450;52.654;10.326;2023-07-16T14:22:35;4.28;;;3.20;;
16673;SDS011;8450;52.654;10.326;2023-07-16T14:25:00;3.60;;;3.30;;
16673;SDS011;8450;52.654;10.326;2023-07-16T14:27:27;4.10;;;3.70;;
16673;SDS011;8450;52.654;10.326;2023-07-16T14:29:53;7.20;;;3.33;;
16673;SDS011;8450;52.654;10.326;2023-07-16T14:32:18;4.22;;;3.28;;
16673;SDS011;8450;52.654;10.326;2023-07-16T14:34:44;3.30;;;3.00;;
16673;SDS011;8450;52.654;10.326;2023-07-16T14:37:10;4.15;;;3.30;;
16673;SDS011;8450;52.654;10.326;2023-07-16T14:39:35;5.03;;;3.55;;
16673;SDS011;8450;52.654;10.326;2023-07-16T14:42:01;4.20;;;3.58;;
16673;SDS011;8450;52.654;10.326;2023-07-16T14:44:29;5.33;;;3.23;;
16673;SDS011;8450;52.654;10.326;2023-07-16T14:46:55;4.63;;;3.70;;
16673;SDS011;8450;52.654;10.326;2023-07-16T14:49:20;4.30;;;3.50;;
16673;SDS011;8450;52.654;10.326;2023-07-16T14:51:46;3.80;;;3.33;;
16673;SDS011;8450;52.654;10.326;2023-07-16T14:54:11;3.13;;;2.80;;
16673;SDS011;8450;52.654;10.326;2023-07-16T14:56:37;3.58;;;3.25;;
16673;SDS011;8450;52.654;10.326;2023-07-16T14:59:03;5.47;;;3.40;;
16673;SDS011;8450;52.654;10.326;2023-07-16T15:01:28;3.90;;;3.33;;
16673;SDS011;8450;52.654;10.326;2023-07-16T15:03:54;3.38;;;3.08;;
16673;SDS011;8450;52.654;10.326;2023-07-16T15:06:20;3.90;;;3.38;;
16673;SDS011;8450;52.654;10.326;2023-07-16T15:08:45;3.85;;;3.50;;
16673;SDS011;8450;52.654;10.326;2023-07-16T15:11:11;4.13;;;3.13;;
16673;SDS011;8450;52.654;10.326;2023-07-16T15:13:37;5.10;;;4.05;;
16673;SDS011;8450;52.654;10.326;2023-07-16T15:16:03;3.55;;;3.25;;
16673;SDS011;8450;52.654;10.326;2023-07-16T15:18:29;4.55;;;3.88;;
16673;SDS011;8450;52.654;10.326;2023-07-16T15:20:55;3.80;;;3.35;;
16673;SDS011;8450;52.654;10.326;2023-07-16T15:23:25;4.63;;;4.07;;
16673;SDS011;8450;52.654;10.326;2023-07-16T15:25:52;3.83;;;3.50;;
16673;SDS011;8450;52.654;10.326;2023-07-16T15:28:17;5.60;;;3.95;;
16673;SDS011;8450;52.654;10.326;2023-07-16T15:30:43;4.20;;;3.80;;
16673;SDS011;8450;52.654;10.326;2023-07-16T15:33:09;4.07;;;3.70;;
16673;SDS011;8450;52.654;10.326;2023-07-16T15:35:34;4.70;;;3.47;;
16673;SDS011;8450;52.654;10.326;2023-07-16T15:38:01;4.30;;;3.40;;
16673;SDS011;8450;52.654;10.326;2023-07-16T15:40:27;3.75;;;3.35;;
16673;SDS011;8450;52.654;10.326;2023-07-16T15:42:54;4.00;;;3.70;;
16673;SDS011;8450;52.654;10.326;2023-07-16T15:45:19;5.18;;;3.97;;
16673;SDS011;8450;52.654;10.326;2023-07-16T15:47:45;5.38;;;4.13;;
16673;SDS011;8450;52.654;10.326;2023-07-16T15:50:11;4.20;;;3.80;;
16673;SDS011;8450;52.654;10.326;2023-07-16T15:52:37;4.15;;;3.75;;
16673;SDS011;8450;52.654;10.326;2023-07-16T15:55:03;4.30;;;3.90;;
16673;SDS011;8450;52.654;10.326;2023-07-16T15:57:30;4.53;;;4.00;;
16673;SDS011;8450;52.654;10.326;2023-07-16T15:59:56;5.22;;;3.60;;
16673;SDS011;8450;52.654;10.326;2023-07-16T16:02:22;4.55;;;4.10;;
16673;SDS011;8450;52.654;10.326;2023-07-16T16:04:48;5.38;;;3.80;;
16673;SDS011;8450;52.654;10.326;2023-07-16T16:07:14;4.10;;;3.63;;
16673;SDS011;8450;52.654;10.326;2023-07-16T16:09:40;5.80;;;3.97;;
16673;SDS011;8450;52.654;10.326;2023-07-16T16:12:05;5.15;;;4.20;;
16673;SDS011;8450;52.654;10.326;2023-07-16T16:14:31;4.57;;;3.85;;
16673;SDS011;8450;52.654;10.326;2023-07-16T16:16:57;5.97;;;4.03;;
16673;SDS011;8450;52.654;10.326;2023-07-16T16:19:23;6.55;;;4.10;;
16673;SDS011;8450;52.654;10.326;2023-07-16T16:21:52;4.57;;;4.18;;
16673;SDS011;8450;52.654;10.326;2023-07-16T16:24:17;5.40;;;4.07;;
16673;SDS011;8450;52.654;10.326;2023-07-16T16:26:43;4.55;;;4.10;;
16673;SDS011;8450;52.654;10.326;2023-07-16T16:29:08;6.03;;;3.92;;
16673;SDS011;8450;52.654;10.326;2023-07-16T16:31:34;4.80;;;3.83;;
16673;SDS011;8450;52.654;10.326;2023-07-16T16:34:00;6.63;;;4.57;;
16673;SDS011;8450;52.654;10.326;2023-07-16T16:36:25;5.05;;;3.95;;
16673;SDS011;8450;52.654;10.326;2023-07-16T16:38:51;4.85;;;4.05;;
16673;SDS011;8450;52.654;10.326;2023-07-16T16:41:16;4.32;;;4.03;;
16673;SDS011;8450;52.654;10.326;2023-07-16T16:43:42;6.40;;;3.75;;
16673;SDS011;8450;52.654;10.326;2023-07-16T16:46:08;4.15;;;3.83;;
16673;SDS011;8450;52.654;10.326;2023-07-16T16:48:35;4.00;;;3.70;;
16673;SDS011;8450;52.654;10.326;2023-07-16T16:51:03;4.13;;;3.78;;
16673;SDS011;8450;52.654;10.326;2023-07-16T16:53:28;4.63;;;4.22;;
16673;SDS011;8450;52.654;10.326;2023-07-16T16:55:54;5.90;;;4.38;;
16673;SDS011;8450;52.654;10.326;2023-07-16T16:58:23;3.65;;;3.35;;
16673;SDS011;8450;52.654;10.326;2023-07-16T17:00:48;4.13;;;3.72;;
16673;SDS011;8450;52.654;10.326;2023-07-16T17:03:17;4.70;;;3.92;;
16673;SDS011;8450;52.654;10.326;2023-07-16T17:05:43;3.90;;;3.53;;
16673;SDS011;8450;52.654;10.326;2023-07-16T17:08:08;3.80;;;3.40;;
16673;SDS011;8450;52.654;10.326;2023-07-16T17:10:34;3.92;;;3.22;;
16673;SDS011;8450;52.654;10.326;2023-07-16T17:12:59;5.43;;;3.90;;
16673;SDS011;8450;52.654;10.326;2023-07-16T17:15:25;4.28;;;3.88;;
16673;SDS011;8450;52.654;10.326;2023-07-16T17:17:51;3.97;;;3.53;;
16673;SDS011;8450;52.654;10.326;2023-07-16T17:20:17;5.05;;;3.90;;
16673;SDS011;8450;52.654;10.326;2023-07-16T17:22:42;5.25;;;3.72;;
16673;SDS011;8450;52.654;10.326;2023-07-16T17:25:08;4.35;;;3.20;;
16673;SDS011;8450;52.654;10.326;2023-07-16T17:27:35;4.40;;;3.42;;
16673;SDS011;8450;52.654;10.326;2023-07-16T17:30:01;5.80;;;3.40;;
16673;SDS011;8450;52.654;10.326;2023-07-16T17:32:28;3.63;;;3.33;;
16673;SDS011;8450;52.654;10.326;2023-07-16T17:34:53;3.28;;;2.97;;
16673;SDS011;8450;52.654;10.326;2023-07-16T17:37:19;3.95;;;3.33;;
16673;SDS011;8450;52.654;10.326;2023-07-16T17:39:44;3.72;;;2.85;;
16673;SDS011;8450;52.654;10.326;2023-07-16T17:42:12;4.30;;;3.50;;
16673;SDS011;8450;52.654;10.326;2023-07-16T17:44:40;5.82;;;3.30;;
16673;SDS011;8450;52.654;10.326;2023-07-16T17:47:06;4.75;;;3.38;;
16673;SDS011;8450;52.654;10.326;2023-07-16T17:49:32;4.20;;;3.50;;
16673;SDS011;8450;52.654;10.326;2023-07-16T17:55:14;3.58;;;2.80;;
16673;SDS011;8450;52.654;10.326;2023-07-16T17:57:40;3.50;;;3.20;;
16673;SDS011;8450;52.654;10.326;2023-07-16T18:00:06;4.00;;;3.25;;
16673;SDS011;8450;52.654;10.326;2023-07-16T18:02:33;3.65;;;3.35;;
16673;SDS011;8450;52.654;10.326;2023-07-16T18:04:59;3.22;;;2.92;;
16673;SDS011;8450;52.654;10.326;2023-07-16T18:07:25;5.38;;;3.40;;
16673;SDS011;8450;52.654;10.326;2023-07-16T18:09:50;4.40;;;3.40;;
